Time;durP1;ratioP1;P1;durP2;ratioP2;P2;SDS_P1;SDS_P2;PMS_P1;PMS_P2;Temp;Humidity;BMP_temperature;BMP_pressure;BME280_temperature;BME280_humidity;BME280_pressure;Samples;Min_cycle;Max_cycle;Signal;HPM_P1;HPM_P2
2023/07/16 00:00:29;;;;;;;12.45;3.75;;;;;;;16.08;100.00;100733.53;5062160;28;20028;-76
2023/07/16 00:02:54;;;;;;;15.52;3.45;;;;;;;16.07;100.00;100736.41;5061246;28;20090;-76
2023/07/16 00:05:20;;;;;;;10.98;2.90;;;;;;;16.00;100.00;100738.88;5059784;28;20336;-76
2023/07/16 00:07:45;;;;;;;13.02;3.20;;;;;;;15.98;100.00;100734.63;5061966;28;20028;-76
2023/07/16 00:10:10;;;;;;;11.10;3.40;;;;;;;15.96;100.00;100742.03;5053754;28;20108;-76
2023/07/16 00:12:36;;;;;;;14.23;3.25;;;;;;;15.95;100.00;100735.75;5055368;28;20116;-76
2023/07/16 00:15:01;;;;;;;13.40;3.80;;;;;;;15.93;100.00;100737.78;5052514;28;20092;-76
2023/07/16 00:17:26;;;;;;;12.10;2.97;;;;;;;15.90;100.00;100748.91;5052967;28;20400;-76
2023/07/16 00:19:52;;;;;;;13.88;3.75;;;;;;;15.87;100.00;100744.66;5057199;28;20036;-76
2023/07/16 00:22:17;;;;;;;10.98;3.20;;;;;;;15.87;100.00;100746.50;5053523;28;20041;-76
2023/07/16 00:24:42;;;;;;;17.13;3.30;;;;;;;15.85;100.00;100748.50;5053004;28;20053;-76
2023/07/16 00:27:08;;;;;;;13.65;3.40;;;;;;;15.83;100.00;100736.97;5053060;28;20032;-76
2023/07/16 00:29:33;;;;;;;18.15;3.55;;;;;;;15.83;100.00;100747.81;5055372;28;20025;-76
2023/07/16 00:31:59;;;;;;;14.68;4.03;;;;;;;15.84;100.00;100747.66;5064387;28;20044;-76
2023/07/16 00:34:24;;;;;;;11.80;3.17;;;;;;;15.84;100.00;100744.97;5051776;28;20024;-76
2023/07/16 00:36:49;;;;;;;11.48;3.40;;;;;;;15.84;100.00;100736.81;5056353;28;20044;-76
2023/07/16 00:39:15;;;;;;;13.82;3.75;;;;;;;15.86;100.00;100742.09;5058654;28;20107;-76
2023/07/16 00:41:40;;;;;;;14.07;3.53;;;;;;;15.90;100.00;100751.59;5063311;28;20146;-76
2023/07/16 00:44:05;;;;;;;14.55;3.78;;;;;;;15.90;100.00;100751.59;5056882;28;20098;-76
2023/07/16 00:46:31;;;;;;;13.32;3.35;;;;;;;15.88;100.00;100756.34;5058531;28;20035;-76
2023/07/16 00:48:56;;;;;;;11.55;3.63;;;;;;;15.82;100.00;100740.69;5059235;28;20036;-76
2023/07/16 00:51:22;;;;;;;15.38;3.60;;;;;;;15.82;100.00;100748.81;5057936;28;20036;-76
2023/07/16 00:53:48;;;;;;;16.77;3.67;;;;;;;15.82;100.00;100746.94;5057044;28;20059;-76
2023/07/16 00:56:17;;;;;;;11.68;3.33;;;;;;;15.78;100.00;100740.09;5062097;28;20017;-76
2023/07/16 00:58:42;;;;;;;16.50;3.75;;;;;;;15.77;100.00;100745.66;5054978;28;20404;-76
2023/07/16 01:01:07;;;;;;;9.38;3.30;;;;;;;15.73;100.00;100751.38;5049151;28;20021;-78
2023/07/16 01:03:33;;;;;;;12.80;3.65;;;;;;;15.69;100.00;100744.53;5058584;28;20045;-78
2023/07/16 01:06:14;;;;;;;15.20;3.80;;;;;;;15.71;100.00;100752.50;5053281;28;20029;-77
2023/07/16 01:08:46;;;;;;;13.15;3.40;;;;;;;15.72;100.00;100746.09;5049992;28;20040;-77
2023/07/16 01:11:12;;;;;;;14.38;3.67;;;;;;;15.72;100.00;100749.69;5060712;28;20025;-77
2023/07/16 01:13:38;;;;;;;15.10;3.55;;;;;;;15.73;100.00;100751.38;5057279;28;20036;-78
2023/07/16 01:16:04;;;;;;;16.02;4.13;;;;;;;15.70;100.00;100748.97;5063445;28;20419;-78
2023/07/16 01:18:29;;;;;;;18.75;3.83;;;;;;;15.70;100.00;100745.41;5053283;28;20036;-78
2023/07/16 01:20:54;;;;;;;14.82;4.07;;;;;;;15.69;100.00;100749.09;5053611;28;20384;-78
2023/07/16 01:24:04;;;;;;;12.23;3.97;;;;;;;15.68;100.00;100742.84;5058134;28;20131;-77
2023/07/16 01:26:47;;;;;;;14.82;4.15;;;;;;;15.67;100.00;100751.97;5064236;28;20046;-78
2023/07/16 01:29:32;;;;;;;11.73;2.95;;;;;;;15.67;100.00;100746.53;5042265;28;20041;-78
2023/07/16 01:32:00;;;;;;;12.13;3.75;;;;;;;15.65;100.00;100751.28;5062107;28;20083;-78
2023/07/16 01:34:28;;;;;;;12.50;3.15;;;;;;;15.67;100.00;100743.00;5062569;28;20027;-78
2023/07/16 01:36:54;;;;;;;11.68;3.60;;;;;;;15.63;100.00;100745.13;5056327;28;20031;-78
2023/07/16 01:39:19;;;;;;;16.20;4.32;;;;;;;15.63;100.00;100738.88;5052678;28;20022;-78
2023/07/16 01:41:44;;;;;;;13.55;3.42;;;;;;;15.63;100.00;100738.88;5054721;28;20035;-78
2023/07/16 01:44:10;;;;;;;16.25;4.32;;;;;;;15.62;100.00;100740.72;5058966;28;20029;-78
2023/07/16 01:46:35;;;;;;;17.02;3.67;;;;;;;15.61;100.00;100743.56;5055477;28;20112;-77
2023/07/16 01:49:01;;;;;;;12.50;4.03;;;;;;;15.62;100.00;100740.72;5059436;28;20447;-78
2023/07/16 01:51:26;;;;;;;14.95;4.05;;;;;;;15.62;100.00;100743.41;5058300;28;20024;-77
2023/07/16 01:53:51;;;;;;;11.55;3.65;;;;;;;15.62;100.00;100745.28;5054124;28;20029;-78
2023/07/16 01:56:16;;;;;;;13.98;4.30;;;;;;;15.65;100.00;100739.56;5040316;28;20476;-78
2023/07/16 01:58:42;;;;;;;14.57;3.72;;;;;;;15.63;100.00;100737.00;5051135;28;20024;-78
2023/07/16 02:01:07;;;;;;;15.95;4.72;;;;;;;15.65;100.00;100736.84;5060297;28;20119;-78
2023/07/16 02:03:32;;;;;;;14.10;4.38;;;;;;;15.67;100.00;100741.13;5057132;28;20025;-78
2023/07/16 02:05:58;;;;;;;16.73;4.80;;;;;;;15.66;100.00;100733.16;5052660;28;20032;-77
2023/07/16 02:08:23;;;;;;;15.48;4.40;;;;;;;15.66;100.00;100736.69;5057237;28;20039;-78
2023/07/16 02:10:49;;;;;;;12.95;3.97;;;;;;;15.67;100.00;100740.28;5053734;28;20111;-77
2023/07/16 02:13:14;;;;;;;18.70;4.70;;;;;;;15.70;100.00;100743.53;5062839;28;20103;-78
2023/07/16 02:15:39;;;;;;;12.55;3.97;;;;;;;15.70;100.00;100740.81;5038544;28;20064;-77
2023/07/16 02:18:05;;;;;;;11.27;3.72;;;;;;;15.69;100.00;100741.81;5055979;28;20059;-78
2023/07/16 02:20:31;;;;;;;16.02;4.10;;;;;;;15.71;100.00;100747.97;5054928;28;20052;-77
2023/07/16 02:22:56;;;;;;;15.48;4.07;;;;;;;15.72;100.00;100744.25;5056021;28;20040;-77
2023/07/16 02:25:22;;;;;;;13.88;3.88;;;;;;;15.71;100.00;100747.97;5056629;28;20472;-77
2023/07/16 02:27:48;;;;;;;16.60;4.50;;;;;;;15.71;100.00;100755.22;5054019;28;20569;-78
2023/07/16 02:30:14;;;;;;;13.88;4.32;;;;;;;15.74;100.00;100752.25;5047212;28;20116;-78
2023/07/16 02:32:40;;;;;;;13.65;4.32;;;;;;;15.75;100.00;100758.50;5052320;28;20054;-78
2023/07/16 02:35:08;;;;;;;15.32;4.70;;;;;;;15.77;100.00;100765.50;5060922;28;20119;-78
2023/07/16 02:37:33;;;;;;;14.65;4.53;;;;;;;15.76;100.00;100773.78;5061363;28;20049;-78
2023/07/16 02:39:59;;;;;;;13.15;4.20;;;;;;;15.78;100.00;100759.06;5047740;28;20107;-78
2023/07/16 02:42:24;;;;;;;16.98;4.15;;;;;;;15.75;100.00;100756.63;5060729;28;20141;-78
2023/07/16 02:44:50;;;;;;;12.45;4.53;;;;;;;15.77;100.00;100761.91;5057056;28;20044;-77
2023/07/16 02:47:15;;;;;;;14.68;3.85;;;;;;;15.75;100.00;100762.06;5048194;28;20409;-77
2023/07/16 02:49:40;;;;;;;15.57;4.35;;;;;;;15.75;100.00;100756.63;5043885;28;20496;-78
2023/07/16 02:52:09;;;;;;;16.83;4.80;;;;;;;15.70;100.00;100762.50;5060276;28;20043;-78
2023/07/16 02:54:37;;;;;;;15.68;4.13;;;;;;;15.71;100.00;100771.47;5059214;28;20021;-78
2023/07/16 02:57:03;;;;;;;22.48;4.15;;;;;;;15.71;100.00;100775.06;5057811;28;20034;-78
2023/07/16 02:59:28;;;;;;;19.08;4.57;;;;;;;15.68;100.00;100775.34;5055056;28;20476;-78
2023/07/16 03:01:54;;;;;;;20.40;4.85;;;;;;;15.69;100.00;100771.63;5056452;28;20422;-78
2023/07/16 03:04:19;;;;;;;13.32;4.22;;;;;;;15.67;100.00;100772.78;5059736;28;20161;-78
2023/07/16 03:06:44;;;;;;;16.80;4.68;;;;;;;15.67;100.00;100765.50;5050395;28;20094;-78
2023/07/16 03:09:11;;;;;;;16.83;4.35;;;;;;;15.66;100.00;100766.50;5048995;28;20037;-78
2023/07/16 03:11:36;;;;;;;16.08;4.28;;;;;;;15.66;100.00;100784.63;5060423;28;20084;-78
2023/07/16 03:14:01;;;;;;;14.95;3.78;;;;;;;15.64;100.00;100782.06;5061829;28;20021;-78
2023/07/16 03:16:27;;;;;;;15.80;4.43;;;;;;;15.63;100.00;100788.47;5057008;28;20036;-78
2023/07/16 03:18:53;;;;;;;15.50;4.47;;;;;;;15.58;100.00;100796.22;5064279;28;20037;-78
2023/07/16 03:21:18;;;;;;;14.55;4.55;;;;;;;15.61;100.00;100798.63;5055238;28;20090;-78
2023/07/16 03:23:44;;;;;;;15.38;4.10;;;;;;;15.56;100.00;100792.78;5060277;28;20041;-79
2023/07/16 03:26:09;;;;;;;14.45;4.60;;;;;;;15.53;100.00;100798.47;5063026;28;20036;-79
2023/07/16 03:28:34;;;;;;;14.18;4.38;;;;;;;15.50;100.00;100804.19;5057557;28;20024;-78
2023/07/16 03:30:59;;;;;;;17.45;4.93;;;;;;;15.44;100.00;100792.09;5060084;28;20458;-78
2023/07/16 03:33:25;;;;;;;16.17;4.18;;;;;;;15.45;100.00;100806.50;5062729;28;20102;-78
2023/07/16 03:35:51;;;;;;;18.90;5.47;;;;;;;15.42;100.00;100813.06;5062115;28;20055;-78
2023/07/16 03:38:16;;;;;;;13.63;4.55;;;;;;;15.39;100.00;100802.53;5047795;28;20408;-78
2023/07/16 03:40:46;;;;;;;13.00;4.30;;;;;;;15.37;100.00;100809.91;5051775;28;20025;-78
2023/07/16 03:43:12;;;;;;;15.13;5.00;;;;;;;15.32;100.00;100806.81;5062220;28;20134;-78
2023/07/16 03:45:37;;;;;;;20.95;4.85;;;;;;;15.28;100.00;100806.22;5064869;28;20024;-77
2023/07/16 03:48:02;;;;;;;16.70;4.38;;;;;;;15.27;100.00;100809.94;5050895;28;20025;-78
2023/07/16 03:50:28;;;;;;;17.25;4.68;;;;;;;15.22;100.00;100814.09;5049262;28;20123;-78
2023/07/16 03:52:53;;;;;;;20.45;4.43;;;;;;;15.23;100.00;100813.94;5054041;28;20026;-78
2023/07/16 03:55:19;;;;;;;14.38;4.32;;;;;;;15.18;100.00;100816.19;5061297;28;20028;-78
2023/07/16 03:57:44;;;;;;;16.58;4.22;;;;;;;15.17;100.00;100825.34;5057829;28;20047;-79
2023/07/16 04:00:10;;;;;;;14.15;4.95;;;;;;;15.12;100.00;100823.03;5060553;28;20393;-79
2023/07/16 04:02:35;;;;;;;13.93;4.22;;;;;;;15.13;100.00;100818.50;5060887;28;20641;-77
2023/07/16 04:05:01;;;;;;;15.75;4.72;;;;;;;15.11;100.00;100828.59;5065841;28;20024;-79
2023/07/16 04:07:27;;;;;;;19.88;5.03;;;;;;;15.10;100.00;100832.31;5050164;28;20032;-79
2023/07/16 04:09:52;;;;;;;15.07;3.92;;;;;;;15.10;100.00;100829.63;5054552;28;20029;-78
2023/07/16 04:12:18;;;;;;;14.57;4.43;;;;;;;15.09;98.97;100838.72;5068084;28;20499;-79
2023/07/16 04:14:43;;;;;;;19.08;5.30;;;;;;;15.10;99.25;100837.75;5051765;28;20089;-79
2023/07/16 04:17:08;;;;;;;20.58;5.03;;;;;;;15.06;98.03;100842.56;5058422;28;20104;-78
2023/07/16 04:19:34;;;;;;;18.02;5.03;;;;;;;15.04;98.34;100855.41;5062275;28;20029;-79
2023/07/16 04:21:59;;;;;;;18.83;4.63;;;;;;;15.06;99.17;100849.84;5056013;28;20036;-78
2023/07/16 04:24:26;;;;;;;27.45;5.57;;;;;;;15.04;97.76;100858.09;5062948;28;20049;-78
2023/07/16 04:26:52;;;;;;;18.90;5.35;;;;;;;15.00;96.75;100860.22;5060609;28;20016;-78
2023/07/16 04:29:18;;;;;;;17.60;5.93;;;;;;;15.04;97.94;100858.09;5062886;28;20040;-78
2023/07/16 04:31:43;;;;;;;18.95;5.22;;;;;;;15.03;97.74;100861.81;5055741;28;20111;-79
2023/07/16 04:34:08;;;;;;;13.02;4.13;;;;;;;15.01;97.46;100867.34;5061846;28;20025;-79
2023/07/16 04:36:34;;;;;;;15.80;4.57;;;;;;;15.02;98.38;100870.91;5060355;28;20577;-78
2023/07/16 04:38:59;;;;;;;18.48;5.35;;;;;;;15.00;97.97;100875.63;5059090;28;20032;-79
2023/07/16 04:41:24;;;;;;;18.20;5.18;;;;;;;15.02;97.88;100874.50;5059220;28;20379;-78
2023/07/16 04:43:50;;;;;;;18.33;4.93;;;;;;;15.02;97.48;100879.91;5062946;28;20497;-79
2023/07/16 04:46:16;;;;;;;16.50;5.22;;;;;;;15.05;97.78;100881.44;5061823;28;20043;-79
2023/07/16 04:48:41;;;;;;;17.40;5.13;;;;;;;15.01;96.75;100885.47;5054634;28;20148;-78
2023/07/16 04:51:07;;;;;;;18.58;5.60;;;;;;;15.06;96.86;100893.16;5053878;28;20132;-79
2023/07/16 04:53:32;;;;;;;15.88;4.85;;;;;;;15.07;96.44;100900.28;5054505;28;20033;-78
2023/07/16 04:55:57;;;;;;;19.30;5.60;;;;;;;15.08;98.08;100896.56;5050546;28;20021;-78
2023/07/16 04:58:23;;;;;;;17.58;5.13;;;;;;;15.08;98.22;100897.44;5054844;28;20471;-78
2023/07/16 05:00:49;;;;;;;20.38;5.75;;;;;;;15.11;98.42;100899.84;5060778;28;20425;-79
2023/07/16 05:03:14;;;;;;;15.55;5.05;;;;;;;15.09;97.36;100901.84;5063314;28;20477;-79
2023/07/16 05:05:40;;;;;;;19.92;5.70;;;;;;;15.11;95.64;100901.69;5045510;28;20029;-79
2023/07/16 05:08:08;;;;;;;20.25;6.15;;;;;;;15.11;96.13;100902.56;5043502;28;20029;-78
2023/07/16 05:10:34;;;;;;;19.38;5.85;;;;;;;15.14;95.62;100898.69;5061531;28;20031;-79
2023/07/16 05:12:59;;;;;;;18.67;5.43;;;;;;;15.11;94.96;100893.56;5051225;28;20408;-79
2023/07/16 05:15:24;;;;;;;15.60;4.43;;;;;;;15.11;94.12;100902.56;5060797;28;20063;-79
2023/07/16 05:17:50;;;;;;;19.05;5.80;;;;;;;15.15;93.92;100897.72;5062317;28;20024;-79
2023/07/16 05:20:15;;;;;;;22.00;5.63;;;;;;;15.17;93.08;100906.56;5063281;28;20040;-79
2023/07/16 05:22:41;;;;;;;20.08;6.15;;;;;;;15.25;94.06;100908.56;5054550;28;20024;-78
2023/07/16 05:25:06;;;;;;;22.75;6.25;;;;;;;15.22;92.49;100906.13;5056230;28;20456;-78
2023/07/16 05:27:32;;;;;;;16.42;4.93;;;;;;;15.25;92.48;100909.41;5059420;28;20368;-79
2023/07/16 05:29:57;;;;;;;19.38;5.85;;;;;;;15.27;92.32;100915.56;5056633;28;20111;-80
2023/07/16 05:32:23;;;;;;;18.73;5.03;;;;;;;15.32;92.26;100915.13;5062451;28;20028;-78
2023/07/16 05:34:48;;;;;;;17.42;5.93;;;;;;;15.33;91.90;100916.81;5057203;28;20082;-79
2023/07/16 05:37:13;;;;;;;21.13;6.18;;;;;;;15.38;92.46;100915.38;5058505;28;20039;-78
2023/07/16 05:39:39;;;;;;;20.20;6.03;;;;;;;15.42;91.30;100924.09;5052527;28;20035;-79
2023/07/16 05:42:05;;;;;;;20.15;6.35;;;;;;;15.46;91.18;100921.94;5053479;28;20035;-79
2023/07/16 05:44:30;;;;;;;21.73;6.75;;;;;;;15.48;90.66;100926.22;5059577;28;20082;-79
2023/07/16 05:46:56;;;;;;;23.27;6.30;;;;;;;15.51;92.01;100928.66;5058657;28;20032;-78
2023/07/16 05:49:21;;;;;;;18.40;6.53;;;;;;;15.53;90.16;100925.78;5056332;28;20029;-79
2023/07/16 05:51:46;;;;;;;21.17;6.65;;;;;;;15.58;90.04;100926.25;5057531;28;20033;-79
2023/07/16 05:54:11;;;;;;;21.65;6.20;;;;;;;15.61;90.29;100931.38;5062750;28;20051;-77
2023/07/16 05:56:37;;;;;;;22.02;6.57;;;;;;;15.66;90.32;100931.78;5049166;28;20523;-80
2023/07/16 05:59:02;;;;;;;18.88;5.50;;;;;;;15.71;89.72;100947.59;5047470;28;20051;-78
2023/07/16 06:01:27;;;;;;;21.25;6.10;;;;;;;15.75;89.10;100945.47;5046370;28;20471;-80
2023/07/16 06:03:53;;;;;;;19.55;6.22;;;;;;;15.80;89.99;100945.91;5052537;28;20361;-80
2023/07/16 06:06:19;;;;;;;28.23;6.80;;;;;;;15.82;87.77;100952.91;5051663;28;20028;-80
2023/07/16 06:08:44;;;;;;;19.08;5.93;;;;;;;15.88;89.25;100957.75;5043365;28;20385;-80
2023/07/16 06:11:10;;;;;;;21.23;6.05;;;;;;;15.95;89.51;100949.06;5042756;28;20111;-82
2023/07/16 06:13:35;;;;;;;21.75;6.43;;;;;;;15.96;87.44;100956.16;5043532;28;20028;-82
2023/07/16 06:16:00;;;;;;;21.00;6.88;;;;;;;16.01;87.59;100957.44;5038721;28;20465;-82
2023/07/16 06:18:26;;;;;;;20.58;5.78;;;;;;;16.06;87.81;100955.16;5040458;28;20321;-81
2023/07/16 06:20:52;;;;;;;19.85;6.60;;;;;;;16.12;87.91;100966.41;5038623;28;20090;-81
2023/07/16 06:23:18;;;;;;;24.05;6.28;;;;;;;16.16;85.29;100959.69;5050948;28;20052;-81
2023/07/16 06:25:44;;;;;;;19.52;6.13;;;;;;;16.20;86.07;100970.09;5043941;28;20021;-82
2023/07/16 06:28:10;;;;;;;22.65;7.18;;;;;;;16.23;85.68;100956.25;5038607;28;20059;-80
2023/07/16 06:30:35;;;;;;;22.08;5.88;;;;;;;16.28;85.48;100960.38;5044550;28;20112;-80
2023/07/16 06:33:01;;;;;;;22.75;6.78;;;;;;;16.33;85.73;100971.66;5039246;28;20495;-80
2023/07/16 06:35:26;;;;;;;26.27;7.63;;;;;;;16.37;83.98;100970.34;5056048;28;20020;-81
2023/07/16 06:37:51;;;;;;;19.17;6.50;;;;;;;16.42;84.82;100968.91;5052122;28;20494;-80
2023/07/16 06:40:17;;;;;;;20.02;6.75;;;;;;;16.48;84.22;100972.03;5040505;28;20116;-80
2023/07/16 06:42:42;;;;;;;20.20;6.32;;;;;;;16.55;85.10;100979.41;5053592;28;20338;-80
2023/07/16 06:45:08;;;;;;;19.60;6.93;;;;;;;16.57;83.47;100987.41;5038110;28;20033;-82
2023/07/16 06:47:33;;;;;;;18.65;7.13;;;;;;;16.62;84.66;100979.69;5039249;28;20334;-81
2023/07/16 06:49:59;;;;;;;19.83;6.65;;;;;;;16.67;83.96;100979.25;5060920;28;20112;-82
2023/07/16 06:52:27;;;;;;;20.90;7.13;;;;;;;16.71;83.05;100978.78;5058626;28;20119;-81
2023/07/16 06:54:53;;;;;;;19.27;6.75;;;;;;;16.77;84.90;100986.31;5055872;28;20161;-79
2023/07/16 06:57:18;;;;;;;22.27;6.95;;;;;;;16.82;83.94;100990.47;5043205;28;20496;-82
2023/07/16 06:59:44;;;;;;;21.05;6.90;;;;;;;16.86;83.40;100986.44;5045703;28;20104;-82
2023/07/16 07:02:09;;;;;;;20.30;6.85;;;;;;;16.89;81.78;101003.31;5054184;28;20025;-83
2023/07/16 07:04:34;;;;;;;18.40;6.55;;;;;;;16.91;81.49;100987.75;5064979;28;20032;-81
2023/07/16 07:07:00;;;;;;;22.30;7.15;;;;;;;16.96;82.55;101000.84;5062791;28;20149;-82
2023/07/16 07:09:25;;;;;;;21.33;6.22;;;;;;;17.02;81.89;100997.53;5063895;28;20028;-81
2023/07/16 07:11:50;;;;;;;21.13;7.43;;;;;;;17.04;80.28;101014.53;5060855;28;20052;-81
2023/07/16 07:14:16;;;;;;;22.15;7.85;;;;;;;17.06;80.57;101019.81;5053016;28;20025;-81
2023/07/16 07:16:41;;;;;;;20.15;7.10;;;;;;;17.08;80.51;101018.66;5057663;28;20087;-82
2023/07/16 07:19:06;;;;;;;23.40;7.63;;;;;;;17.12;80.11;101013.78;5057651;28;20044;-81
2023/07/16 07:21:31;;;;;;;24.80;7.80;;;;;;;17.16;80.19;101015.19;5052760;28;20025;-81
2023/07/16 07:23:57;;;;;;;20.83;6.70;;;;;;;17.22;81.53;101016.41;5051828;28;20060;-81
2023/07/16 07:26:22;;;;;;;22.45;8.10;;;;;;;17.27;80.90;101033.13;5060128;28;20479;-83
2023/07/16 07:28:48;;;;;;;23.65;8.27;;;;;;;17.32;81.67;101033.53;5062191;28;20456;-82
2023/07/16 07:31:13;;;;;;;21.92;7.85;;;;;;;17.36;80.69;101015.06;5051977;28;20447;-82
2023/07/16 07:33:38;;;;;;;19.05;6.18;;;;;;;17.41;80.55;101020.88;5044497;28;20040;-83
2023/07/16 07:36:04;;;;;;;21.25;7.38;;;;;;;17.44;79.28;101020.59;5050333;28;20024;-82
2023/07/16 07:38:29;;;;;;;21.80;7.32;;;;;;;17.45;79.61;101019.56;5048458;28;20393;-84
2023/07/16 07:40:55;;;;;;;18.05;6.43;;;;;;;17.46;78.40;101016.69;5053764;28;20034;-81
2023/07/16 07:43:20;;;;;;;20.48;7.35;;;;;;;17.49;79.17;101022.84;5045784;28;20037;-81
2023/07/16 07:45:45;;;;;;;22.63;7.35;;;;;;;17.54;78.85;101028.66;5047203;28;20044;-82
2023/07/16 07:48:11;;;;;;;20.40;7.18;;;;;;;17.58;77.21;101030.91;5046103;28;20035;-83
2023/07/16 07:50:36;;;;;;;19.42;6.82;;;;;;;17.64;78.28;101029.44;5046847;28;20546;-82
2023/07/16 07:53:01;;;;;;;19.13;6.90;;;;;;;17.71;80.28;101027.81;5047629;28;20107;-82
2023/07/16 07:55:26;;;;;;;23.67;7.32;;;;;;;17.76;77.99;101032.78;5047935;28;20017;-83
2023/07/16 07:57:52;;;;;;;19.30;6.95;;;;;;;17.78;77.45;101022.63;5041114;28;20441;-82
2023/07/16 08:00:17;;;;;;;20.48;6.68;;;;;;;17.81;77.56;101031.31;5044240;28;20455;-82
2023/07/16 08:02:43;;;;;;;22.77;6.93;;;;;;;17.88;78.84;101027.97;5044394;28;20686;-81
2023/07/16 08:05:08;;;;;;;21.70;7.53;;;;;;;17.92;77.94;101030.28;5055428;28;20040;-82
2023/07/16 08:07:33;;;;;;;23.67;7.50;;;;;;;17.99;79.82;101025.94;5051134;28;20028;-82
2023/07/16 08:09:59;;;;;;;19.48;6.72;;;;;;;18.04;78.92;101025.44;5049257;28;20028;-83
2023/07/16 08:12:24;;;;;;;19.48;6.65;;;;;;;18.11;80.41;101031.97;5044012;28;20029;-83
2023/07/16 08:14:50;;;;;;;20.20;6.57;;;;;;;18.17;76.77;101041.38;5051537;28;20072;-82
2023/07/16 08:17:15;;;;;;;20.98;6.45;;;;;;;18.25;77.96;101035.13;5052617;28;20029;-84
2023/07/16 08:19:40;;;;;;;18.13;6.72;;;;;;;18.30;77.60;101027.34;5044478;28;20036;-82
2023/07/16 08:22:06;;;;;;;22.60;6.32;;;;;;;18.35;77.01;101030.44;5045128;28;20072;-84
2023/07/16 08:24:31;;;;;;;22.85;6.57;;;;;;;18.39;77.00;101039.13;5045459;28;20071;-82
2023/07/16 08:26:57;;;;;;;21.08;5.75;;;;;;;18.40;74.72;101030.81;5040719;28;20087;-82
2023/07/16 08:29:22;;;;;;;19.90;6.50;;;;;;;18.45;75.68;101035.78;5035219;28;20108;-82
2023/07/16 08:31:47;;;;;;;21.83;6.55;;;;;;;18.47;73.82;101031.88;5041073;28;20056;-82
2023/07/16 08:34:13;;;;;;;17.85;6.65;;;;;;;18.48;72.71;101036.31;5033450;28;20021;-84
2023/07/16 08:36:38;;;;;;;17.85;6.00;;;;;;;18.54;73.88;101036.66;5047467;28;20026;-84
2023/07/16 08:39:04;;;;;;;20.90;6.03;;;;;;;18.56;74.87;101048.28;5048437;28;20116;-84
2023/07/16 08:41:30;;;;;;;24.00;7.45;;;;;;;18.58;74.17;101043.50;5057433;28;20341;-82
2023/07/16 08:43:56;;;;;;;24.42;6.38;;;;;;;18.64;75.04;101042.91;5060216;28;20056;-83
2023/07/16 08:46:22;;;;;;;18.60;6.03;;;;;;;18.67;73.42;101042.56;5055161;28;20028;-83
2023/07/16 08:48:48;;;;;;;19.80;6.30;;;;;;;18.67;72.12;101048.00;5042303;28;20030;-82
2023/07/16 08:51:15;;;;;;;19.60;6.20;;;;;;;18.65;73.21;101055.47;5052003;28;20036;-82
2023/07/16 08:53:40;;;;;;;20.60;6.95;;;;;;;18.65;72.16;101055.47;5049440;28;20020;-80
2023/07/16 08:56:06;;;;;;;18.27;5.93;;;;;;;18.70;72.50;101050.41;5041977;28;20025;-83
2023/07/16 08:58:32;;;;;;;19.90;5.88;;;;;;;18.78;73.43;101055.88;5035063;28;20040;-82
2023/07/16 09:00:59;;;;;;;18.98;6.80;;;;;;;18.88;73.24;101063.97;5039385;28;20035;-76
2023/07/16 09:03:24;;;;;;;21.98;7.05;;;;;;;18.96;71.71;101060.44;5048991;28;20031;-76
2023/07/16 09:05:49;;;;;;;18.63;6.07;;;;;;;19.01;72.61;101069.00;5042092;28;20029;-75
2023/07/16 09:08:15;;;;;;;21.65;5.93;;;;;;;18.99;70.09;101071.00;5055524;28;20511;-75
2023/07/16 09:10:41;;;;;;;18.85;5.90;;;;;;;18.97;72.36;101073.06;5058171;28;20400;-76
2023/07/16 09:13:07;;;;;;;17.23;5.82;;;;;;;18.99;72.82;101079.16;5061436;28;20075;-75
2023/07/16 09:15:34;;;;;;;24.70;6.40;;;;;;;19.06;73.75;101068.50;5059551;28;20497;-75
2023/07/16 09:18:00;;;;;;;17.55;6.03;;;;;;;19.13;71.87;101064.94;5055517;28;20048;-76
2023/07/16 09:20:27;;;;;;;21.15;6.32;;;;;;;19.27;74.02;101071.66;5049493;28;20032;-75
2023/07/16 09:22:55;;;;;;;17.10;6.22;;;;;;;19.37;72.14;101077.84;5038159;28;20247;-76
2023/07/16 09:25:29;;;;;;;17.80;5.87;;;;;;;19.37;70.13;101087.84;5052515;28;20029;-75
2023/07/16 09:27:55;;;;;;;21.50;6.35;;;;;;;19.30;68.89;101084.13;5054897;28;20024;-75
2023/07/16 09:30:20;;;;;;;19.70;6.20;;;;;;;19.29;70.56;101080.50;5053830;28;20029;-75
2023/07/16 09:32:47;;;;;;;19.50;5.70;;;;;;;19.28;70.02;101072.50;5051728;28;20087;-80
2023/07/16 09:35:15;;;;;;;18.05;5.30;;;;;;;19.33;71.03;101081.06;5050624;28;20031;-75
2023/07/16 09:37:41;;;;;;;19.83;6.00;;;;;;;19.37;71.27;101076.97;5055294;28;20025;-76
2023/07/16 09:40:11;;;;;;;21.65;6.32;;;;;;;19.39;69.59;101085.84;5048743;28;20138;-75
2023/07/16 09:42:43;;;;;;;20.27;6.53;;;;;;;19.41;70.89;101085.69;5052764;28;20511;-76
2023/07/16 09:45:18;;;;;;;23.08;5.72;;;;;;;19.39;69.78;101083.97;5061114;28;20058;-75
2023/07/16 09:47:43;;;;;;;19.40;6.13;;;;;;;19.40;71.01;101090.28;5054336;28;20043;-75
2023/07/16 09:50:09;;;;;;;18.63;5.50;;;;;;;19.43;68.83;101094.53;5053990;28;20036;-77
2023/07/16 09:52:34;;;;;;;20.58;5.65;;;;;;;19.44;68.22;101102.53;5056668;28;20025;-79
2023/07/16 09:55:03;;;;;;;21.38;6.70;;;;;;;19.49;71.03;101100.19;5056891;28;20480;-80
2023/07/16 09:57:35;;;;;;;16.08;5.45;;;;;;;19.53;68.82;101100.69;5058105;28;20036;-79
2023/07/16 10:00:04;;;;;;;16.60;5.57;;;;;;;19.58;69.24;101102.91;5058016;28;20493;-79
2023/07/16 10:02:33;;;;;;;16.27;5.65;;;;;;;19.62;70.83;101101.56;5054119;28;20020;-79
2023/07/16 10:04:59;;;;;;;19.83;5.95;;;;;;;19.62;69.32;101110.63;5058542;28;20025;-79
2023/07/16 10:07:26;;;;;;;21.02;6.00;;;;;;;19.64;69.59;101113.19;5061127;28;20035;-79
2023/07/16 10:09:56;;;;;;;19.52;6.00;;;;;;;19.69;68.95;101113.53;5039060;28;20035;-78
2023/07/16 10:12:26;;;;;;;17.75;6.15;;;;;;;19.68;69.95;101114.56;5048031;28;20116;-79
2023/07/16 10:14:52;;;;;;;;;;;;;;;19.72;70.81;101121.38;5062624;28;20052;-78
2023/07/16 10:17:19;;;;;;;17.70;5.78;;;;;;;19.74;68.77;101131.09;5046383;28;20249;-79
2023/07/16 10:19:51;;;;;;;18.67;5.72;;;;;;;19.78;68.59;101130.78;5058173;28;20547;-79
2023/07/16 10:22:34;;;;;;;20.02;6.07;;;;;;;19.79;68.80;101129.78;5047934;28;20036;-79
2023/07/16 10:25:00;;;;;;;19.60;5.95;;;;;;;19.82;68.47;101135.75;5047790;28;20171;-80
2023/07/16 10:27:27;;;;;;;17.48;5.55;;;;;;;19.83;67.39;101137.47;5054096;28;20091;-79
2023/07/16 10:29:54;;;;;;;17.23;6.03;;;;;;;19.86;68.12;101141.75;5053467;28;20461;-78
2023/07/16 10:32:37;;;;;;;18.42;5.85;;;;;;;19.90;68.29;101133.06;5042175;28;20021;-79
2023/07/16 10:35:05;;;;;;;20.35;6.05;;;;;;;19.93;67.14;101133.72;5059107;28;20389;-79
2023/07/16 10:37:31;;;;;;;19.15;6.28;;;;;;;20.03;69.03;101126.25;5046502;28;20892;-78
2023/07/16 10:40:05;;;;;;;17.70;6.20;;;;;;;20.08;67.48;101132.91;5050297;28;20132;-80
2023/07/16 10:42:31;;;;;;;19.05;5.43;;;;;;;20.14;69.02;101136.00;5055605;28;20048;-78
2023/07/16 10:45:02;;;;;;;20.83;5.93;;;;;;;20.15;65.95;101137.72;5050571;28;20050;-80
2023/07/16 10:47:30;;;;;;;18.40;5.65;;;;;;;20.14;66.54;101139.56;5063579;28;20032;-80
2023/07/16 10:49:55;;;;;;;15.10;5.00;;;;;;;20.13;64.16;101140.59;5042347;28;20042;-79
2023/07/16 10:52:22;;;;;;;21.65;5.70;;;;;;;20.14;65.61;101142.31;5041947;28;20033;-79
2023/07/16 10:54:49;;;;;;;17.65;5.18;;;;;;;20.13;65.25;101142.47;5039275;28;20021;-79
2023/07/16 10:57:16;;;;;;;17.90;6.07;;;;;;;20.14;66.21;101158.69;5039324;28;20087;-79
2023/07/16 10:59:43;;;;;;;17.42;4.97;;;;;;;20.14;64.68;101163.28;5049386;28;20557;-80
2023/07/16 11:02:12;;;;;;;17.60;5.60;;;;;;;20.13;63.95;101164.31;5049325;28;20495;-80
2023/07/16 11:04:37;;;;;;;15.55;5.72;;;;;;;20.07;65.30;101165.81;5044370;28;20433;-79
2023/07/16 11:07:13;;;;;;;16.00;5.30;;;;;;;20.04;65.98;101172.47;5038264;28;20070;-79
2023/07/16 11:09:43;;;;;;;16.20;5.20;;;;;;;20.03;68.32;101180.81;5049622;28;20338;-79